MST,Max TemperatureF,Mean TemperatureF,Min TemperatureF,Max Dew PointF,MeanDew PointF,Min DewpointF,Max Humidity, Mean Humidity, Min Humidity, Max Sea Level PressureIn, Mean Sea Level PressureIn, Min Sea Level PressureIn, Max VisibilityMiles, Mean VisibilityMiles, Min VisibilityMiles, Max Wind SpeedMPH, Mean Wind SpeedMPH, Max Gust SpeedMPH,PrecipitationIn, CloudCover, Events, WindDirDegrees
2012-12-1,51,42,32,37,34,30,100,69,50,30.10,30.05,30.00,10,10,10,22,7,29,0.00,3,,202
2012-12-2,53,42,32,39,32,28,100,72,41,30.03,29.92,29.80,10,9,2,17,5,28,0.00,3,Snow-Thunderstorm,173
2012-12-3,39,31,23,32,26,21,100,83,61,30.33,30.21,30.03,10,10,10,9,2,,0.00,0,,114
2012-12-4,37,29,21,34,28,19,100,86,75,30.40,30.33,30.24,10,10,7,7,1,,0.00,5,,119
2012-12-5,50,40,30,39,35,30,100,87,50,30.24,30.14,30.10,10,10,5,14,3,21,0.00,7,Rain,225
2012-12-6,46,39,32,36,34,30,100,87,61,30.10,30.03,29.95,10,8,1,8,1,,0.00,6,,124
2012-12-7,42,32,23,32,23,14,100,68,33,30.07,30.01,29.95,10,10,10,10,2,,0.00,4,Snow,81
2012-12-8,35,30,23,27,22,18,86,74,56,30.03,29.93,29.84,10,10,2,20,5,24,0.00,8,Snow,2
2012-12-9,26,20,14,21,14,10,93,73,51,30.29,30.16,30.03,10,10,2,13,3,,0.00,6,Snow,54
2012-12-10,26,19,12,25,18,9,93,87,79,30.29,30.14,30.04,10,7,1,8,1,,0.00,7,Snow,95
2012-12-11,41,30,19,28,24,18,100,85,57,30.10,29.99,29.84,10,8,3,6,1,,0.00,5,Snow,122
2012-12-12,44,34,24,27,21,18,93,57,39,29.86,29.80,29.75,10,10,10,16,5,22,0.00,3,,160
2012-12-13,42,36,30,28,22,16,81,57,34,29.91,29.87,29.81,10,10,10,16,4,22,0.00,5,,133
2012-12-14,41,34,26,34,28,21,100,82,57,29.80,29.66,29.56,10,9,4,8,1,,0.00,7,Snow,186
2012-12-15,35,32,30,32,28,23,100,85,75,29.81,29.77,29.73,10,8,2,23,6,28,0.00,8,Snow,215
2012-12-16,32,30,28,28,24,21,93,78,64,29.93,29.87,29.77,10,10,3,17,9,25,0.00,8,Snow,223
2012-12-17,41,36,30,32,28,23,100,79,61,29.89,29.80,29.72,10,8,1,29,11,37,0.00,7,Snow,212
2012-12-18,30,26,21,28,23,12,93,82,68,29.81,29.74,29.65,10,8,1,13,3,17,0.00,8,Snow,71
2012-12-19,23,12,0,12,6,-4,92,72,54,30.37,30.07,29.73,10,10,10,16,5,17,0.00,1,,97
2012-12-20,21,8,-4,12,3,-8,92,80,54,30.39,30.31,30.23,10,8,0,4,0,,0.00,2,Fog-Snow,125
2012-12-21,32,16,1,19,8,-4,93,75,44,30.26,30.15,30.06,10,8,0,4,0,,0.00,1,Fog-Snow,229
2012-12-22,41,24,8,19,11,3,92,62,31,30.11,30.01,29.90,10,10,10,23,3,32,0.00,1,,159
2012-12-23,39,31,23,32,24,14,100,70,38,30.10,29.97,29.87,10,10,2,20,8,29,0.00,6,Snow,197
2012-12-24,33,26,19,32,25,9,100,84,55,30.03,29.82,29.72,10,7,0,16,2,25,0.00,6,Snow,41
2012-12-25,30,22,14,18,13,7,86,74,51,30.15,30.05,29.90,10,10,10,6,1,,0.00,3,,139
2012-12-26,30,24,19,23,21,16,100,86,64,29.89,29.71,29.62,10,5,1,8,1,16,0.00,8,Snow,196
2012-12-27,28,20,12,21,17,7,100,80,55,30.00,29.81,29.67,10,9,1,15,2,,0.00,6,Snow,112
2012-12-28,28,14,1,19,12,-2,93,84,64,30.20,30.11,30.00,10,9,5,7,0,,0.00,6,Snow,109
2012-12-29,21,10,-2,18,5,-6,100,82,63,30.20,30.08,29.95,10,8,0,5,0,,0.00,4,Fog,73
2012-12-30,26,18,10,16,12,9,92,73,55,29.98,29.94,29.91,10,10,10,5,1,,0.00,6,,95
2012-12-31,21,11,1,12,6,-4,92,80,63,30.18,30.07,29.97,10,7,2,7,1,,0.00,4,Snow,175